Algosea — CFN4229 — position and weather

sailwx.info

Track history (hours):
 
Tides and Currents Weather Stations Pressure Air Temp Water Temp Dewpoint Dewpoint Depression Visibility Wind Speed Wind Dir Waves Ship Positions

Algosea

Last reported at 2015-Aug-31 09:07 UTC. Time now 2015-Aug-31 23:47 UTC.
Position N 45°12' W 074°18'.

Length 144 m; draft 7 m.

Type: Ship (hazmat cat A). MMSI: 316006868.

Date/timePositionNaut miles runAvg speedWind from/ knotsBaromVisibWave heightAir tempDewpointWater temp
2015-Aug-31 09:07N 45°12' W 074°18'5 9.3
2015-Aug-31 08:33N 45°14' W 074°11'8 8.0
2015-Aug-31 07:33N 45°14' W 073°59'5 4.6
2015-Aug-31 06:34N 45°18' W 073°56'1 0.8
2015-Aug-31 05:34N 45°19' W 073°55'4 3.9
2015-Aug-31 04:33N 45°21' W 073°51'8 8.2
2015-Aug-31 03:33N 45°25' W 073°40'4 4.4
2015-Aug-31 02:33N 45°24' W 073°34'3 2.7
2015-Aug-31 01:33N 45°25' W 073°30'  
2015-Aug-28 21:33N 46°06' W 072°59'9 9.0
2015-Aug-28 20:34N 46°12' W 072°50'10 9.7
2015-Aug-28 19:34N 46°16' W 072°38'8 8.1
2015-Aug-28 18:34N 46°22' W 072°29'9 9.0
2015-Aug-28 17:34N 46°26' W 072°18'9 8.7
2015-Aug-28 16:33N 46°33' W 072°09'8 7.8
2015-Aug-28 15:34N 46°36' W 071°59'6 0.2
2015-Aug-27 07:05N 46°34' W 072°07'713.7
2015-Aug-27 06:33N 46°29' W 072°14'1312.6
2015-Aug-27 05:34N 46°22' W 072°30'1111.1
2015-Aug-27 04:33N 46°16' W 072°43'57 2.2
2015-Aug-26 02:24N 45°30' W 073°31'2 1.4
2015-Aug-26 01:17N 45°29' W 073°31'4 4.7
2015-Aug-26 00:29N 45°25' W 073°31'2 2.5
2015-Aug-25 23:34N 45°24' W 073°34'4 4.4
2015-Aug-25 22:34N 45°25' W 073°40'10 9.9
2015-Aug-25 21:34N 45°21' W 073°53'3 2.9
2015-Aug-25 20:34N 45°18' W 073°56'2 1.8
2015-Aug-25 19:33N 45°17' W 073°57'9 9.2
2015-Aug-25 18:33N 45°14' W 074°09'115 8.6
2015-Aug-25 05:16N 44°08' W 076°21'3 4.7
2015-Aug-25 04:34N 44°05' W 076°25'11211.2
2015-Aug-24 18:33N 43°23' W 078°49'1212.1
2015-Aug-24 17:33N 43°20' W 079°05'9 8.9
2015-Aug-24 16:33N 43°13' W 079°13'1 1.2
2015-Aug-24 15:33N 43°12' W 079°13'1 1.1
2015-Aug-24 14:33N 43°11' W 079°12'2 2.0
2015-Aug-24 13:33N 43°09' W 079°12'1 1.1
2015-Aug-24 12:33N 43°08' W 079°12'0 0.2
2015-Aug-24 11:33N 43°08' W 079°12'1 0.6
2015-Aug-24 10:33N 43°07' W 079°12'1 1.4
2015-Aug-24 09:33N 43°06' W 079°12'16 3.8
2015-Aug-24 05:24N 42°50' W 079°16'8 9.7
2015-Aug-24 04:33N 42°45' W 079°24'1511.7
2015-Aug-24 03:16N 42°36' W 079°41'1012.0
2015-Aug-24 02:25N 42°30' W 079°52'1311.7
2015-Aug-24 01:20N 42°24' W 080°07'  
Track history (hours):
 
Tides and Currents Weather Stations Pressure Air Temp Water Temp Dewpoint Dewpoint Depression Visibility Wind Speed Wind Dir Waves Ship Positions

Algosea

Last reported at 2015-Aug-31 09:07 UTC. Time now 2015-Aug-31 23:47 UTC.
Position N 45°12' W 074°18'.

Length 144 m; draft 7 m.

Type: Ship (hazmat cat A). MMSI: 316006868.

Date/timePositionNaut miles runAvg speedWind from/ knotsBaromVisibWave heightAir tempDewpointWater temp
2015-Aug-31 09:07N 45°12' W 074°18'5 9.3
2015-Aug-31 08:33N 45°14' W 074°11'8 8.0
2015-Aug-31 07:33N 45°14' W 073°59'5 4.6
2015-Aug-31 06:34N 45°18' W 073°56'1 0.8
2015-Aug-31 05:34N 45°19' W 073°55'4 3.9
2015-Aug-31 04:33N 45°21' W 073°51'8 8.2
2015-Aug-31 03:33N 45°25' W 073°40'4 4.4
2015-Aug-31 02:33N 45°24' W 073°34'3 2.7
2015-Aug-31 01:33N 45°25' W 073°30'  
2015-Aug-28 21:33N 46°06' W 072°59'9 9.0
2015-Aug-28 20:34N 46°12' W 072°50'10 9.7
2015-Aug-28 19:34N 46°16' W 072°38'8 8.1
2015-Aug-28 18:34N 46°22' W 072°29'9 9.0
2015-Aug-28 17:34N 46°26' W 072°18'9 8.7
2015-Aug-28 16:33N 46°33' W 072°09'8 7.8
2015-Aug-28 15:34N 46°36' W 071°59'6 0.2
2015-Aug-27 07:05N 46°34' W 072°07'713.7
2015-Aug-27 06:33N 46°29' W 072°14'1312.6
2015-Aug-27 05:34N 46°22' W 072°30'1111.1
2015-Aug-27 04:33N 46°16' W 072°43'57 2.2
2015-Aug-26 02:24N 45°30' W 073°31'2 1.4
2015-Aug-26 01:17N 45°29' W 073°31'4 4.7
2015-Aug-26 00:29N 45°25' W 073°31'2 2.5
2015-Aug-25 23:34N 45°24' W 073°34'4 4.4
2015-Aug-25 22:34N 45°25' W 073°40'10 9.9
2015-Aug-25 21:34N 45°21' W 073°53'3 2.9
2015-Aug-25 20:34N 45°18' W 073°56'2 1.8
2015-Aug-25 19:33N 45°17' W 073°57'9 9.2
2015-Aug-25 18:33N 45°14' W 074°09'115 8.6
2015-Aug-25 05:16N 44°08' W 076°21'3 4.7
2015-Aug-25 04:34N 44°05' W 076°25'11211.2
2015-Aug-24 18:33N 43°23' W 078°49'1212.1
2015-Aug-24 17:33N 43°20' W 079°05'9 8.9
2015-Aug-24 16:33N 43°13' W 079°13'1 1.2
2015-Aug-24 15:33N 43°12' W 079°13'1 1.1
2015-Aug-24 14:33N 43°11' W 079°12'2 2.0
2015-Aug-24 13:33N 43°09' W 079°12'1 1.1
2015-Aug-24 12:33N 43°08' W 079°12'0 0.2
2015-Aug-24 11:33N 43°08' W 079°12'1 0.6
2015-Aug-24 10:33N 43°07' W 079°12'1 1.4
2015-Aug-24 09:33N 43°06' W 079°12'16 3.8
2015-Aug-24 05:24N 42°50' W 079°16'8 9.7
2015-Aug-24 04:33N 42°45' W 079°24'1511.7
2015-Aug-24 03:16N 42°36' W 079°41'1012.0
2015-Aug-24 02:25N 42°30' W 079°52'1311.7
2015-Aug-24 01:20N 42°24' W 080°07'  

Dump ship's entire track history